sensor_id;sensor_type;location;lat;lon;timestamp;temperature;humidity
4386;DHT22;2207;53.540;10.042;2023-05-29T00:00:01;13.20;52.60
4386;DHT22;2207;53.540;10.042;2023-05-29T00:02:31;13.20;52.70
4386;DHT22;2207;53.540;10.042;2023-05-29T00:04:57;13.30;52.70
4386;DHT22;2207;53.540;10.042;2023-05-29T00:07:25;13.30;52.70
4386;DHT22;2207;53.540;10.042;2023-05-29T00:09:53;13.30;52.70
4386;DHT22;2207;53.540;10.042;2023-05-29T00:12:19;13.30;52.80
4386;DHT22;2207;53.540;10.042;2023-05-29T00:14:48;13.30;52.70
4386;DHT22;2207;53.540;10.042;2023-05-29T00:17:14;13.30;52.80
4386;DHT22;2207;53.540;10.042;2023-05-29T00:19:43;13.20;52.80
4386;DHT22;2207;53.540;10.042;2023-05-29T00:22:09;13.20;53.00
4386;DHT22;2207;53.540;10.042;2023-05-29T00:24:37;13.20;53.00
4386;DHT22;2207;53.540;10.042;2023-05-29T00:27:04;13.20;53.10
4386;DHT22;2207;53.540;10.042;2023-05-29T00:29:31;13.10;53.10
4386;DHT22;2207;53.540;10.042;2023-05-29T00:31:57;13.10;53.20
4386;DHT22;2207;53.540;10.042;2023-05-29T00:34:24;13.00;53.30
4386;DHT22;2207;53.540;10.042;2023-05-29T00:36:51;12.90;53.30
4386;DHT22;2207;53.540;10.042;2023-05-29T00:39:20;12.80;53.40
4386;DHT22;2207;53.540;10.042;2023-05-29T00:41:48;12.70;53.60
4386;DHT22;2207;53.540;10.042;2023-05-29T00:44:16;12.50;53.70
4386;DHT22;2207;53.540;10.042;2023-05-29T00:46:43;12.40;53.90
4386;DHT22;2207;53.540;10.042;2023-05-29T00:49:10;12.30;54.10
4386;DHT22;2207;53.540;10.042;2023-05-29T00:51:38;12.10;54.20
4386;DHT22;2207;53.540;10.042;2023-05-29T00:54:06;12.00;54.40
4386;DHT22;2207;53.540;10.042;2023-05-29T00:56:34;11.90;54.60
4386;DHT22;2207;53.540;10.042;2023-05-29T00:59:02;11.90;54.70
4386;DHT22;2207;53.540;10.042;2023-05-29T01:01:30;11.80;54.90
4386;DHT22;2207;53.540;10.042;2023-05-29T01:03:59;11.70;54.90
4386;DHT22;2207;53.540;10.042;2023-05-29T01:06:27;11.70;55.20
4386;DHT22;2207;53.540;10.042;2023-05-29T01:08:53;11.60;55.20
4386;DHT22;2207;53.540;10.042;2023-05-29T01:11:24;11.50;55.20
4386;DHT22;2207;53.540;10.042;2023-05-29T01:13:54;11.50;55.30
4386;DHT22;2207;53.540;10.042;2023-05-29T01:16:29;11.40;55.60
4386;DHT22;2207;53.540;10.042;2023-05-29T01:19:04;11.30;55.40
4386;DHT22;2207;53.540;10.042;2023-05-29T01:21:59;11.20;55.80
4386;DHT22;2207;53.540;10.042;2023-05-29T01:24:35;11.20;55.80
4386;DHT22;2207;53.540;10.042;2023-05-29T01:27:06;11.10;55.90
4386;DHT22;2207;53.540;10.042;2023-05-29T01:29:34;11.00;56.20
4386;DHT22;2207;53.540;10.042;2023-05-29T01:32:01;10.90;56.40
4386;DHT22;2207;53.540;10.042;2023-05-29T01:34:28;10.80;56.50
4386;DHT22;2207;53.540;10.042;2023-05-29T01:36:55;10.80;56.50
4386;DHT22;2207;53.540;10.042;2023-05-29T01:39:23;10.70;56.60
4386;DHT22;2207;53.540;10.042;2023-05-29T01:41:50;10.60;56.50
4386;DHT22;2207;53.540;10.042;2023-05-29T01:44:20;10.50;56.40
4386;DHT22;2207;53.540;10.042;2023-05-29T01:46:47;10.50;56.60
4386;DHT22;2207;53.540;10.042;2023-05-29T01:49:15;10.50;57.00
4386;DHT22;2207;53.540;10.042;2023-05-29T01:51:42;10.40;57.10
4386;DHT22;2207;53.540;10.042;2023-05-29T01:54:09;10.40;57.10
4386;DHT22;2207;53.540;10.042;2023-05-29T01:56:36;10.40;57.40
4386;DHT22;2207;53.540;10.042;2023-05-29T01:59:03;10.30;57.30
4386;DHT22;2207;53.540;10.042;2023-05-29T02:01:32;10.30;57.10
4386;DHT22;2207;53.540;10.042;2023-05-29T02:03:59;10.20;57.00
4386;DHT22;2207;53.540;10.042;2023-05-29T02:06:25;10.20;57.20
4386;DHT22;2207;53.540;10.042;2023-05-29T02:08:52;10.20;57.20
4386;DHT22;2207;53.540;10.042;2023-05-29T02:11:19;10.10;57.20
4386;DHT22;2207;53.540;10.042;2023-05-29T02:13:45;10.10;57.20
4386;DHT22;2207;53.540;10.042;2023-05-29T02:16:12;10.10;57.40
4386;DHT22;2207;53.540;10.042;2023-05-29T02:18:40;10.00;57.40
4386;DHT22;2207;53.540;10.042;2023-05-29T02:21:08;10.00;57.60
4386;DHT22;2207;53.540;10.042;2023-05-29T02:23:35;10.00;57.40
4386;DHT22;2207;53.540;10.042;2023-05-29T02:26:02;9.90;58.20
4386;DHT22;2207;53.540;10.042;2023-05-29T02:28:28;9.90;58.20
4386;DHT22;2207;53.540;10.042;2023-05-29T02:30:55;9.90;58.20
4386;DHT22;2207;53.540;10.042;2023-05-29T02:33:22;9.80;58.20
4386;DHT22;2207;53.540;10.042;2023-05-29T02:35:50;9.80;58.30
4386;DHT22;2207;53.540;10.042;2023-05-29T02:38:17;9.80;58.30
4386;DHT22;2207;53.540;10.042;2023-05-29T02:40:44;9.80;58.50
4386;DHT22;2207;53.540;10.042;2023-05-29T02:43:13;9.70;58.50
4386;DHT22;2207;53.540;10.042;2023-05-29T02:45:40;9.70;58.60
4386;DHT22;2207;53.540;10.042;2023-05-29T02:48:06;9.70;58.70
4386;DHT22;2207;53.540;10.042;2023-05-29T02:50:33;9.60;58.50
4386;DHT22;2207;53.540;10.042;2023-05-29T02:53:01;9.60;58.60
4386;DHT22;2207;53.540;10.042;2023-05-29T02:55:28;9.50;58.60
4386;DHT22;2207;53.540;10.042;2023-05-29T02:57:57;9.50;58.80
4386;DHT22;2207;53.540;10.042;2023-05-29T03:00:25;9.50;58.90
4386;DHT22;2207;53.540;10.042;2023-05-29T03:02:53;9.40;58.90
4386;DHT22;2207;53.540;10.042;2023-05-29T03:05:20;9.40;58.90
4386;DHT22;2207;53.540;10.042;2023-05-29T03:07:47;9.40;59.00
4386;DHT22;2207;53.540;10.042;2023-05-29T03:10:15;9.40;59.10
4386;DHT22;2207;53.540;10.042;2023-05-29T03:12:42;9.30;59.00
4386;DHT22;2207;53.540;10.042;2023-05-29T03:15:09;9.30;59.10
4386;DHT22;2207;53.540;10.042;2023-05-29T03:17:36;9.30;59.30
4386;DHT22;2207;53.540;10.042;2023-05-29T03:20:05;9.30;59.30
4386;DHT22;2207;53.540;10.042;2023-05-29T03:22:33;9.30;59.40
4386;DHT22;2207;53.540;10.042;2023-05-29T03:25:01;9.30;59.40
4386;DHT22;2207;53.540;10.042;2023-05-29T03:27:29;9.40;59.40
4386;DHT22;2207;53.540;10.042;2023-05-29T03:29:56;9.40;59.40
4386;DHT22;2207;53.540;10.042;2023-05-29T03:32:23;9.40;59.30
4386;DHT22;2207;53.540;10.042;2023-05-29T03:34:50;9.50;59.40
4386;DHT22;2207;53.540;10.042;2023-05-29T03:37:17;9.50;59.30
4386;DHT22;2207;53.540;10.042;2023-05-29T03:39:43;9.50;59.40
4386;DHT22;2207;53.540;10.042;2023-05-29T03:42:10;9.60;59.50
4386;DHT22;2207;53.540;10.042;2023-05-29T03:44:38;9.60;59.30
4386;DHT22;2207;53.540;10.042;2023-05-29T03:47:06;9.70;59.30
4386;DHT22;2207;53.540;10.042;2023-05-29T03:49:34;9.80;59.40
4386;DHT22;2207;53.540;10.042;2023-05-29T03:52:00;9.80;59.40
4386;DHT22;2207;53.540;10.042;2023-05-29T03:54:27;9.90;59.30
4386;DHT22;2207;53.540;10.042;2023-05-29T03:56:54;10.00;58.40
4386;DHT22;2207;53.540;10.042;2023-05-29T03:59:21;10.10;58.30
4386;DHT22;2207;53.540;10.042;2023-05-29T04:01:49;10.20;58.20
4386;DHT22;2207;53.540;10.042;2023-05-29T04:04:15;10.30;58.10
4386;DHT22;2207;53.540;10.042;2023-05-29T04:06:42;10.30;58.00
4386;DHT22;2207;53.540;10.042;2023-05-29T04:09:09;10.30;57.80
4386;DHT22;2207;53.540;10.042;2023-05-29T04:11:36;10.40;57.70
4386;DHT22;2207;53.540;10.042;2023-05-29T04:14:04;10.40;57.70
4386;DHT22;2207;53.540;10.042;2023-05-29T04:16:30;10.40;57.70
4386;DHT22;2207;53.540;10.042;2023-05-29T04:18:58;10.50;57.80
4386;DHT22;2207;53.540;10.042;2023-05-29T04:21:25;10.50;57.80
4386;DHT22;2207;53.540;10.042;2023-05-29T04:23:52;10.50;57.80
4386;DHT22;2207;53.540;10.042;2023-05-29T04:26:21;10.50;57.80
4386;DHT22;2207;53.540;10.042;2023-05-29T04:28:50;10.60;57.90
4386;DHT22;2207;53.540;10.042;2023-05-29T04:31:18;10.70;57.90
4386;DHT22;2207;53.540;10.042;2023-05-29T04:33:48;10.80;57.70
4386;DHT22;2207;53.540;10.042;2023-05-29T04:36:16;10.80;57.60
4386;DHT22;2207;53.540;10.042;2023-05-29T04:38:42;10.90;57.50
4386;DHT22;2207;53.540;10.042;2023-05-29T04:41:10;11.00;57.40
4386;DHT22;2207;53.540;10.042;2023-05-29T04:43:37;11.10;57.10
4386;DHT22;2207;53.540;10.042;2023-05-29T04:46:05;11.20;57.30
4386;DHT22;2207;53.540;10.042;2023-05-29T04:48:33;11.30;57.10
4386;DHT22;2207;53.540;10.042;2023-05-29T04:50:59;11.40;57.00
4386;DHT22;2207;53.540;10.042;2023-05-29T04:53:27;11.50;56.80
4386;DHT22;2207;53.540;10.042;2023-05-29T04:55:55;11.70;56.70
4386;DHT22;2207;53.540;10.042;2023-05-29T04:58:24;11.80;56.40
4386;DHT22;2207;53.540;10.042;2023-05-29T05:00:50;12.00;56.20
4386;DHT22;2207;53.540;10.042;2023-05-29T05:03:17;12.00;55.90
4386;DHT22;2207;53.540;10.042;2023-05-29T05:05:44;12.20;55.80
4386;DHT22;2207;53.540;10.042;2023-05-29T05:08:11;12.40;55.60
4386;DHT22;2207;53.540;10.042;2023-05-29T05:10:39;12.60;55.30
4386;DHT22;2207;53.540;10.042;2023-05-29T05:13:06;12.70;54.80
4386;DHT22;2207;53.540;10.042;2023-05-29T05:15:33;13.10;55.70
4386;DHT22;2207;53.540;10.042;2023-05-29T05:17:59;14.40;57.30
4386;DHT22;2207;53.540;10.042;2023-05-29T05:20:26;16.80;54.20
4386;DHT22;2207;53.540;10.042;2023-05-29T05:22:53;18.90;50.10
4386;DHT22;2207;53.540;10.042;2023-05-29T05:25:21;20.40;47.60
4386;DHT22;2207;53.540;10.042;2023-05-29T05:27:49;21.80;45.30
4386;DHT22;2207;53.540;10.042;2023-05-29T05:30:16;23.30;42.70
4386;DHT22;2207;53.540;10.042;2023-05-29T05:32:42;24.80;40.30
4386;DHT22;2207;53.540;10.042;2023-05-29T05:35:09;26.00;37.90
4386;DHT22;2207;53.540;10.042;2023-05-29T05:37:37;27.10;35.10
4386;DHT22;2207;53.540;10.042;2023-05-29T05:40:04;27.70;33.10
4386;DHT22;2207;53.540;10.042;2023-05-29T05:42:31;28.10;31.20
4386;DHT22;2207;53.540;10.042;2023-05-29T05:45:00;28.30;30.50
4386;DHT22;2207;53.540;10.042;2023-05-29T05:47:26;28.60;29.70
4386;DHT22;2207;53.540;10.042;2023-05-29T05:49:53;29.20;29.00
4386;DHT22;2207;53.540;10.042;2023-05-29T05:52:20;30.40;27.60
4386;DHT22;2207;53.540;10.042;2023-05-29T05:54:48;31.40;26.40
4386;DHT22;2207;53.540;10.042;2023-05-29T05:57:14;32.10;25.70
4386;DHT22;2207;53.540;10.042;2023-05-29T05:59:41;32.80;24.80
4386;DHT22;2207;53.540;10.042;2023-05-29T06:02:09;33.30;24.20
4386;DHT22;2207;53.540;10.042;2023-05-29T06:04:36;33.70;23.60
4386;DHT22;2207;53.540;10.042;2023-05-29T06:07:02;33.20;23.40
4386;DHT22;2207;53.540;10.042;2023-05-29T06:09:29;32.80;23.70
4386;DHT22;2207;53.540;10.042;2023-05-29T06:11:56;33.00;23.50
4386;DHT22;2207;53.540;10.042;2023-05-29T06:19:24;34.70;21.90
4386;DHT22;2207;53.540;10.042;2023-05-29T06:21:51;34.80;21.70
4386;DHT22;2207;53.540;10.042;2023-05-29T06:24:18;35.00;21.40
4386;DHT22;2207;53.540;10.042;2023-05-29T06:26:45;35.00;21.20
4386;DHT22;2207;53.540;10.042;2023-05-29T06:29:11;35.00;21.00
4386;DHT22;2207;53.540;10.042;2023-05-29T06:31:38;35.30;20.70
4386;DHT22;2207;53.540;10.042;2023-05-29T06:34:05;35.40;20.30
4386;DHT22;2207;53.540;10.042;2023-05-29T06:36:32;35.30;20.20
4386;DHT22;2207;53.540;10.042;2023-05-29T06:39:00;35.40;20.00
4386;DHT22;2207;53.540;10.042;2023-05-29T06:41:26;35.70;19.80
4386;DHT22;2207;53.540;10.042;2023-05-29T06:43:53;35.70;19.60
4386;DHT22;2207;53.540;10.042;2023-05-29T06:46:20;35.50;19.60
4386;DHT22;2207;53.540;10.042;2023-05-29T06:48:46;35.30;19.60
4386;DHT22;2207;53.540;10.042;2023-05-29T06:51:13;35.70;19.20
4386;DHT22;2207;53.540;10.042;2023-05-29T06:53:41;36.10;18.90
4386;DHT22;2207;53.540;10.042;2023-05-29T06:56:08;36.60;18.50
4386;DHT22;2207;53.540;10.042;2023-05-29T06:58:34;36.50;18.60
4386;DHT22;2207;53.540;10.042;2023-05-29T07:01:01;36.50;18.50
4386;DHT22;2207;53.540;10.042;2023-05-29T07:03:28;36.30;18.60
4386;DHT22;2207;53.540;10.042;2023-05-29T07:05:55;36.20;18.50
4386;DHT22;2207;53.540;10.042;2023-05-29T07:08:22;35.60;18.60
4386;DHT22;2207;53.540;10.042;2023-05-29T07:10:50;35.30;18.90
4386;DHT22;2207;53.540;10.042;2023-05-29T07:13:17;35.60;18.60
4386;DHT22;2207;53.540;10.042;2023-05-29T07:15:44;35.90;18.50
4386;DHT22;2207;53.540;10.042;2023-05-29T07:18:11;36.50;18.20
4386;DHT22;2207;53.540;10.042;2023-05-29T07:20:37;36.90;17.80
4386;DHT22;2207;53.540;10.042;2023-05-29T07:23:04;35.80;18.20
4386;DHT22;2207;53.540;10.042;2023-05-29T07:25:31;34.60;18.80
4386;DHT22;2207;53.540;10.042;2023-05-29T07:27:59;33.90;19.40
4386;DHT22;2207;53.540;10.042;2023-05-29T07:30:26;33.80;19.40
4386;DHT22;2207;53.540;10.042;2023-05-29T07:32:52;34.10;19.30
4386;DHT22;2207;53.540;10.042;2023-05-29T07:35:19;34.60;19.00
4386;DHT22;2207;53.540;10.042;2023-05-29T07:37:46;34.80;18.80
4386;DHT22;2207;53.540;10.042;2023-05-29T07:40:15;34.10;18.90
4386;DHT22;2207;53.540;10.042;2023-05-29T07:42:41;33.00;19.70
4386;DHT22;2207;53.540;10.042;2023-05-29T07:45:09;32.50;20.00
4386;DHT22;2207;53.540;10.042;2023-05-29T07:47:37;32.40;20.10
4386;DHT22;2207;53.540;10.042;2023-05-29T07:50:04;32.50;20.10
4386;DHT22;2207;53.540;10.042;2023-05-29T07:52:31;32.60;20.10
4386;DHT22;2207;53.540;10.042;2023-05-29T07:54:58;33.10;19.70
4386;DHT22;2207;53.540;10.042;2023-05-29T07:57:27;33.40;19.60
4386;DHT22;2207;53.540;10.042;2023-05-29T07:59:54;33.60;19.50
4386;DHT22;2207;53.540;10.042;2023-05-29T08:02:22;34.30;19.40
4386;DHT22;2207;53.540;10.042;2023-05-29T08:04:49;34.50;19.10
4386;DHT22;2207;53.540;10.042;2023-05-29T08:07:15;34.30;19.10
4386;DHT22;2207;53.540;10.042;2023-05-29T08:09:42;33.20;19.70
4386;DHT22;2207;53.540;10.042;2023-05-29T08:12:09;32.30;20.30
4386;DHT22;2207;53.540;10.042;2023-05-29T08:14:35;31.70;20.60
4386;DHT22;2207;53.540;10.042;2023-05-29T08:17:02;31.30;20.90
4386;DHT22;2207;53.540;10.042;2023-05-29T08:19:30;30.30;21.30
4386;DHT22;2207;53.540;10.042;2023-05-29T08:21:57;28.60;22.50
4386;DHT22;2207;53.540;10.042;2023-05-29T08:24:23;26.90;23.70
4386;DHT22;2207;53.540;10.042;2023-05-29T08:26:50;25.20;25.30
4386;DHT22;2207;53.540;10.042;2023-05-29T08:29:17;24.00;26.40
4386;DHT22;2207;53.540;10.042;2023-05-29T08:31:44;23.00;27.20
4386;DHT22;2207;53.540;10.042;2023-05-29T08:34:11;22.20;27.70
4386;DHT22;2207;53.540;10.042;2023-05-29T08:36:39;21.60;28.10
4386;DHT22;2207;53.540;10.042;2023-05-29T08:39:06;21.30;28.40
4386;DHT22;2207;53.540;10.042;2023-05-29T08:41:39;20.90;28.60
4386;DHT22;2207;53.540;10.042;2023-05-29T08:44:09;20.70;29.00
4386;DHT22;2207;53.540;10.042;2023-05-29T08:46:40;20.70;29.20
4386;DHT22;2207;53.540;10.042;2023-05-29T08:49:08;20.60;29.20
4386;DHT22;2207;53.540;10.042;2023-05-29T08:51:39;20.50;29.40
4386;DHT22;2207;53.540;10.042;2023-05-29T08:54:09;20.40;29.50
4386;DHT22;2207;53.540;10.042;2023-05-29T08:56:36;20.40;29.60
4386;DHT22;2207;53.540;10.042;2023-05-29T08:59:03;20.30;30.30
4386;DHT22;2207;53.540;10.042;2023-05-29T09:01:31;20.20;30.00
4386;DHT22;2207;53.540;10.042;2023-05-29T09:03:58;20.10;30.10
4386;DHT22;2207;53.540;10.042;2023-05-29T09:06:25;20.00;30.30
4386;DHT22;2207;53.540;10.042;2023-05-29T09:08:53;19.90;30.70
4386;DHT22;2207;53.540;10.042;2023-05-29T09:11:21;19.70;31.00
4386;DHT22;2207;53.540;10.042;2023-05-29T09:13:48;19.60;31.40
4386;DHT22;2207;53.540;10.042;2023-05-29T09:16:16;19.50;31.30
4386;DHT22;2207;53.540;10.042;2023-05-29T09:18:43;19.40;31.60
4386;DHT22;2207;53.540;10.042;2023-05-29T09:21:25;19.50;31.60
4386;DHT22;2207;53.540;10.042;2023-05-29T09:23:54;19.50;31.70
4386;DHT22;2207;53.540;10.042;2023-05-29T09:26:21;19.50;31.70
4386;DHT22;2207;53.540;10.042;2023-05-29T09:28:48;19.50;31.70
4386;DHT22;2207;53.540;10.042;2023-05-29T09:31:15;19.50;32.00
4386;DHT22;2207;53.540;10.042;2023-05-29T09:33:47;19.40;32.30
4386;DHT22;2207;53.540;10.042;2023-05-29T09:36:19;19.40;32.60
4386;DHT22;2207;53.540;10.042;2023-05-29T09:38:47;19.40;32.50
4386;DHT22;2207;53.540;10.042;2023-05-29T09:41:20;19.40;32.40
4386;DHT22;2207;53.540;10.042;2023-05-29T09:43:48;19.60;32.50
4386;DHT22;2207;53.540;10.042;2023-05-29T09:46:15;19.70;32.30
4386;DHT22;2207;53.540;10.042;2023-05-29T09:48:43;19.70;32.70
4386;DHT22;2207;53.540;10.042;2023-05-29T09:51:19;19.60;32.60
4386;DHT22;2207;53.540;10.042;2023-05-29T09:53:47;19.60;32.90
4386;DHT22;2207;53.540;10.042;2023-05-29T09:56:17;19.70;32.80
4386;DHT22;2207;53.540;10.042;2023-05-29T09:58:44;19.70;32.70
4386;DHT22;2207;53.540;10.042;2023-05-29T10:01:12;19.70;32.90
4386;DHT22;2207;53.540;10.042;2023-05-29T10:03:41;19.80;32.80
4386;DHT22;2207;53.540;10.042;2023-05-29T10:06:10;19.80;32.80
4386;DHT22;2207;53.540;10.042;2023-05-29T10:08:42;19.80;33.00
4386;DHT22;2207;53.540;10.042;2023-05-29T10:11:11;19.70;33.10
4386;DHT22;2207;53.540;10.042;2023-05-29T10:13:42;19.70;33.10
4386;DHT22;2207;53.540;10.042;2023-05-29T10:16:14;19.70;33.20
4386;DHT22;2207;53.540;10.042;2023-05-29T10:18:43;19.70;33.10
4386;DHT22;2207;53.540;10.042;2023-05-29T10:21:12;19.70;33.10
4386;DHT22;2207;53.540;10.042;2023-05-29T10:23:42;19.70;33.10
4386;DHT22;2207;53.540;10.042;2023-05-29T10:26:11;19.70;33.10
4386;DHT22;2207;53.540;10.042;2023-05-29T10:28:43;19.70;33.40
4386;DHT22;2207;53.540;10.042;2023-05-29T10:31:16;19.60;33.50
4386;DHT22;2207;53.540;10.042;2023-05-29T10:33:56;19.50;33.70
4386;DHT22;2207;53.540;10.042;2023-05-29T10:36:29;19.50;33.70
4386;DHT22;2207;53.540;10.042;2023-05-29T10:38:57;19.50;33.80
4386;DHT22;2207;53.540;10.042;2023-05-29T10:41:31;19.50;33.80
4386;DHT22;2207;53.540;10.042;2023-05-29T10:44:37;19.50;33.80
4386;DHT22;2207;53.540;10.042;2023-05-29T10:47:05;19.50;33.80
4386;DHT22;2207;53.540;10.042;2023-05-29T10:49:34;19.50;33.80
4386;DHT22;2207;53.540;10.042;2023-05-29T10:52:03;19.40;33.70
4386;DHT22;2207;53.540;10.042;2023-05-29T10:54:41;19.30;33.80
4386;DHT22;2207;53.540;10.042;2023-05-29T10:57:17;19.20;33.90
4386;DHT22;2207;53.540;10.042;2023-05-29T10:59:46;19.00;33.80
4386;DHT22;2207;53.540;10.042;2023-05-29T11:02:17;19.00;34.00
4386;DHT22;2207;53.540;10.042;2023-05-29T11:04:44;19.10;34.00
4386;DHT22;2207;53.540;10.042;2023-05-29T11:07:33;19.10;33.90
4386;DHT22;2207;53.540;10.042;2023-05-29T11:10:11;19.10;33.90
4386;DHT22;2207;53.540;10.042;2023-05-29T11:12:56;19.10;33.90
4386;DHT22;2207;53.540;10.042;2023-05-29T11:15:25;19.10;34.00
4386;DHT22;2207;53.540;10.042;2023-05-29T11:17:52;19.10;33.90
4386;DHT22;2207;53.540;10.042;2023-05-29T11:20:28;19.20;34.00
4386;DHT22;2207;53.540;10.042;2023-05-29T11:23:02;19.20;34.10
4386;DHT22;2207;53.540;10.042;2023-05-29T11:27:55;19.30;33.90
4386;DHT22;2207;53.540;10.042;2023-05-29T11:30:22;19.40;33.90
4386;DHT22;2207;53.540;10.042;2023-05-29T11:32:52;19.40;33.80
4386;DHT22;2207;53.540;10.042;2023-05-29T11:35:22;19.40;33.80
4386;DHT22;2207;53.540;10.042;2023-05-29T11:37:48;19.50;33.80
4386;DHT22;2207;53.540;10.042;2023-05-29T11:40:16;19.60;33.60
4386;DHT22;2207;53.540;10.042;2023-05-29T11:42:43;19.50;33.60
4386;DHT22;2207;53.540;10.042;2023-05-29T11:45:12;19.50;33.80
4386;DHT22;2207;53.540;10.042;2023-05-29T11:47:54;19.40;33.80
4386;DHT22;2207;53.540;10.042;2023-05-29T11:50:21;19.40;33.80
4386;DHT22;2207;53.540;10.042;2023-05-29T11:52:49;19.50;33.90
4386;DHT22;2207;53.540;10.042;2023-05-29T11:55:17;19.40;33.90
4386;DHT22;2207;53.540;10.042;2023-05-29T11:57:45;19.50;34.00
4386;DHT22;2207;53.540;10.042;2023-05-29T12:00:13;19.50;33.90
4386;DHT22;2207;53.540;10.042;2023-05-29T12:02:41;19.50;33.90
4386;DHT22;2207;53.540;10.042;2023-05-29T12:05:10;19.50;34.00
4386;DHT22;2207;53.540;10.042;2023-05-29T12:07:47;19.50;33.90
4386;DHT22;2207;53.540;10.042;2023-05-29T12:10:16;19.50;34.00
4386;DHT22;2207;53.540;10.042;2023-05-29T12:12:47;19.40;33.90
4386;DHT22;2207;53.540;10.042;2023-05-29T12:15:13;19.40;34.00
4386;DHT22;2207;53.540;10.042;2023-05-29T12:17:41;19.40;34.00
4386;DHT22;2207;53.540;10.042;2023-05-29T12:20:11;19.50;33.90
4386;DHT22;2207;53.540;10.042;2023-05-29T12:22:39;19.40;33.90
4386;DHT22;2207;53.540;10.042;2023-05-29T12:25:07;19.50;33.80
4386;DHT22;2207;53.540;10.042;2023-05-29T12:27:34;19.40;33.80
4386;DHT22;2207;53.540;10.042;2023-05-29T12:30:08;19.40;33.60
4386;DHT22;2207;53.540;10.042;2023-05-29T12:32:36;19.40;34.10
4386;DHT22;2207;53.540;10.042;2023-05-29T12:35:15;19.40;33.30
4386;DHT22;2207;53.540;10.042;2023-05-29T12:37:44;19.50;33.40
4386;DHT22;2207;53.540;10.042;2023-05-29T12:40:21;19.50;33.60
4386;DHT22;2207;53.540;10.042;2023-05-29T12:42:53;19.50;33.80
4386;DHT22;2207;53.540;10.042;2023-05-29T12:45:22;19.50;34.30
4386;DHT22;2207;53.540;10.042;2023-05-29T12:47:52;19.60;33.70
4386;DHT22;2207;53.540;10.042;2023-05-29T12:50:22;19.70;33.70
4386;DHT22;2207;53.540;10.042;2023-05-29T12:52:59;19.70;33.50
4386;DHT22;2207;53.540;10.042;2023-05-29T12:55:27;19.70;33.10
4386;DHT22;2207;53.540;10.042;2023-05-29T12:57:54;19.70;33.10
4386;DHT22;2207;53.540;10.042;2023-05-29T13:00:22;19.70;33.10
4386;DHT22;2207;53.540;10.042;2023-05-29T13:02:49;19.70;33.10
4386;DHT22;2207;53.540;10.042;2023-05-29T13:05:17;19.70;33.10
4386;DHT22;2207;53.540;10.042;2023-05-29T13:07:46;19.70;33.10
4386;DHT22;2207;53.540;10.042;2023-05-29T13:10:13;19.80;33.20
4386;DHT22;2207;53.540;10.042;2023-05-29T13:12:40;19.80;33.10
4386;DHT22;2207;53.540;10.042;2023-05-29T13:15:07;20.00;32.90
4386;DHT22;2207;53.540;10.042;2023-05-29T13:17:34;20.00;32.90
4386;DHT22;2207;53.540;10.042;2023-05-29T13:20:01;20.00;32.90
4386;DHT22;2207;53.540;10.042;2023-05-29T13:22:28;20.00;32.90
4386;DHT22;2207;53.540;10.042;2023-05-29T13:24:59;20.10;32.90
4386;DHT22;2207;53.540;10.042;2023-05-29T13:27:26;20.00;32.90
4386;DHT22;2207;53.540;10.042;2023-05-29T13:29:54;20.10;32.80
4386;DHT22;2207;53.540;10.042;2023-05-29T13:32:21;20.10;32.70
4386;DHT22;2207;53.540;10.042;2023-05-29T13:34:47;20.20;32.80
4386;DHT22;2207;53.540;10.042;2023-05-29T13:37:14;20.30;32.60
4386;DHT22;2207;53.540;10.042;2023-05-29T13:39:41;20.30;32.50
4386;DHT22;2207;53.540;10.042;2023-05-29T13:42:09;20.40;32.40
4386;DHT22;2207;53.540;10.042;2023-05-29T13:44:37;20.50;32.30
4386;DHT22;2207;53.540;10.042;2023-05-29T13:47:05;20.50;32.00
4386;DHT22;2207;53.540;10.042;2023-05-29T13:49:32;20.50;31.90
4386;DHT22;2207;53.540;10.042;2023-05-29T13:51:59;20.50;31.70
4386;DHT22;2207;53.540;10.042;2023-05-29T13:54:25;20.60;31.60
4386;DHT22;2207;53.540;10.042;2023-05-29T13:56:53;20.60;31.20
4386;DHT22;2207;53.540;10.042;2023-05-29T13:59:21;20.70;31.00
4386;DHT22;2207;53.540;10.042;2023-05-29T14:01:47;20.70;30.70
4386;DHT22;2207;53.540;10.042;2023-05-29T14:04:14;20.80;30.60
4386;DHT22;2207;53.540;10.042;2023-05-29T14:06:41;20.80;30.40
4386;DHT22;2207;53.540;10.042;2023-05-29T14:09:07;20.80;30.30
4386;DHT22;2207;53.540;10.042;2023-05-29T14:11:35;20.80;30.20
4386;DHT22;2207;53.540;10.042;2023-05-29T14:14:02;20.80;30.10
4386;DHT22;2207;53.540;10.042;2023-05-29T14:16:30;20.80;30.10
4386;DHT22;2207;53.540;10.042;2023-05-29T14:18:57;20.80;30.00
4386;DHT22;2207;53.540;10.042;2023-05-29T14:21:24;20.80;30.00
4386;DHT22;2207;53.540;10.042;2023-05-29T14:23:51;20.70;30.00
4386;DHT22;2207;53.540;10.042;2023-05-29T14:26:18;20.70;30.00
4386;DHT22;2207;53.540;10.042;2023-05-29T14:28:44;20.70;30.10
4386;DHT22;2207;53.540;10.042;2023-05-29T14:31:11;20.60;30.20
4386;DHT22;2207;53.540;10.042;2023-05-29T14:33:39;20.60;30.30
4386;DHT22;2207;53.540;10.042;2023-05-29T14:36:06;20.50;30.10
4386;DHT22;2207;53.540;10.042;2023-05-29T14:38:33;20.60;30.20
4386;DHT22;2207;53.540;10.042;2023-05-29T14:41:01;20.60;30.10
4386;DHT22;2207;53.540;10.042;2023-05-29T14:43:28;20.60;30.10
4386;DHT22;2207;53.540;10.042;2023-05-29T14:45:54;20.60;30.20
4386;DHT22;2207;53.540;10.042;2023-05-29T14:48:21;20.70;30.60
4386;DHT22;2207;53.540;10.042;2023-05-29T14:50:49;20.70;30.20
4386;DHT22;2207;53.540;10.042;2023-05-29T14:53:16;20.70;30.00
4386;DHT22;2207;53.540;10.042;2023-05-29T14:55:43;20.70;30.00
4386;DHT22;2207;53.540;10.042;2023-05-29T14:58:09;20.80;29.90
4386;DHT22;2207;53.540;10.042;2023-05-29T15:00:37;20.80;29.90
4386;DHT22;2207;53.540;10.042;2023-05-29T15:03:04;20.80;29.90
4386;DHT22;2207;53.540;10.042;2023-05-29T15:05:31;20.80;29.90
4386;DHT22;2207;53.540;10.042;2023-05-29T15:07:59;20.80;29.90
4386;DHT22;2207;53.540;10.042;2023-05-29T15:10:26;20.80;29.90
4386;DHT22;2207;53.540;10.042;2023-05-29T15:12:53;20.80;29.90
4386;DHT22;2207;53.540;10.042;2023-05-29T15:15:22;20.80;29.90
4386;DHT22;2207;53.540;10.042;2023-05-29T15:17:49;20.70;30.00
4386;DHT22;2207;53.540;10.042;2023-05-29T15:20:19;20.70;30.30
4386;DHT22;2207;53.540;10.042;2023-05-29T15:22:45;20.50;30.60
4386;DHT22;2207;53.540;10.042;2023-05-29T15:25:14;20.40;30.80
4386;DHT22;2207;53.540;10.042;2023-05-29T15:27:41;20.40;31.60
4386;DHT22;2207;53.540;10.042;2023-05-29T15:30:08;20.40;32.20
4386;DHT22;2207;53.540;10.042;2023-05-29T15:32:35;20.40;33.20
4386;DHT22;2207;53.540;10.042;2023-05-29T15:35:03;20.40;33.70
4386;DHT22;2207;53.540;10.042;2023-05-29T15:37:30;20.30;34.20
4386;DHT22;2207;53.540;10.042;2023-05-29T15:39:56;20.30;34.70
4386;DHT22;2207;53.540;10.042;2023-05-29T15:42:25;20.20;35.10
4386;DHT22;2207;53.540;10.042;2023-05-29T15:44:52;20.20;35.50
4386;DHT22;2207;53.540;10.042;2023-05-29T15:47:18;20.20;35.50
4386;DHT22;2207;53.540;10.042;2023-05-29T15:49:45;20.20;35.60
4386;DHT22;2207;53.540;10.042;2023-05-29T15:52:12;20.20;35.60
4386;DHT22;2207;53.540;10.042;2023-05-29T15:54:39;20.30;35.70
4386;DHT22;2207;53.540;10.042;2023-05-29T15:57:06;20.30;35.70
4386;DHT22;2207;53.540;10.042;2023-05-29T15:59:34;20.20;35.70